Arame, Brazil
Current Conditions -  °F | °C
As of 3:00 PM on Sunday 21 Dec 2014 (Local Time) from SBIZ Reporting Station
Scattered Clouds Scattered Clouds  
Wind Chill: 95°   Ceiling: Unl
Heat Index: 107°   Visibility: 6mi
Dew Point: 75°   Wind: 3mph
Humidity: 53%   Direction: 90°E
Pressure: 29.8"   Gusts: NA
Location:  4.89°S, 46°W
Report Text: SBIZ 211800Z 09003KT 9999 SCT020 SCT100 35/24 Q1009
Loading
Personal Weather Stations






























Interactive Weather Map New forecast layout! Learn more

10-Day Weather Forecast

Advertisements
Track Severe Weather on mobile